Flight Track Log - Related Links

Times and Time Zones

All times are in EDT time to prevent confusion due to time zone crossing. See the SWA3232 flight status page for this flight to view local times or setup timezone preferences in your user account.

Time Position Orientation Groundspeed Altitude Reporting Facility
EDT Latitude Longitude Course Direction KTS MPH feet Rate Location/Type
Sat 10:32:59 AM 37.7167 -122.2500 150° Southeast 146 168 1,700  Level Northern Cal TRACON
Sat 10:33:59 AM 37.7500 -122.3000 310° West 214 246 5,000 3,700 Climbing Northern Cal TRACON
Sat 10:34:59 AM 37.7667 -122.3833 284° West 229 264 9,100 3,600 Climbing Northern Cal TRACON
Sat 10:35:59 AM 37.7167 -122.4167 208° Southwest 223 257 12,200 2,700 Climbing Northern Cal TRACON
Sat 10:36:59 AM 37.6500 -122.4167 180° South 328 377 14,500 2,803 Climbing Northern Cal TRACON
Sat 10:38:00 AM 37.3326 -122.3637 150° Southeast  Level FlightAware Approximate
Sat 10:38:16 AM 37.5614 -122.3197 139° Southeast 344 396 18,600  Level Oakland Center
Sat 10:39:17 AM 37.4831 -122.2400 141° Southeast 362 417 20,800 2,557 Climbing Oakland Center
Sat 10:40:18 AM 37.4006 -122.1556 141° Southeast 381 438 23,800 2,656 Climbing Oakland Center
Sat 10:41:19 AM 37.3131 -122.0667 141° Southeast 402 463 26,200 2,311 Climbing Oakland Center
Sat 10:42:20 AM 37.2211 -121.9714 140° Southeast 426 490 28,500 2,557 Climbing Oakland Center
Sat 10:43:21 AM 37.1283 -121.8750 140° Southeast 434 499 31,400 2,213 Climbing Oakland Center
Sat 10:44:22 AM 37.0147 -121.7650 142° Southeast 432 497 33,000 787 Climbing Oakland Center
Sat 10:45:23 AM 36.9225 -121.6714 141° Southeast 427 491 33,000  Level Oakland Center
Sat 10:46:24 AM 36.8319 -121.5794 141° Southeast 422 486 33,000  Level Oakland Center
Sat 10:47:25 AM 36.7456 -121.4917 141° Southeast 422 486 33,000  Level Oakland Center
Sat 10:48:26 AM 36.6544 -121.4000 141° Southeast 422 486 33,000  Level Oakland Center
Sat 10:50:32 AM 36.4522 -121.1994 141° Southeast 423 487 33,000  Level Los Angeles Center
Sat 10:51:33 AM 36.3594 -121.1064 141° Southeast 426 490 33,000  Level Los Angeles Center
Sat 10:52:30 AM 36.2861 -121.0311 140° Southeast 428 493 33,000  Level Oakland Center
Sat 10:53:31 AM 36.1756 -120.9208 141° Southeast 427 491 33,000  Level Oakland Center
Sat 10:54:32 AM 36.0831 -120.8294 141° Southeast 426 490 33,000  Level Oakland Center
Sat 10:55:33 AM 35.9917 -120.7389 141° Southeast 423 487 33,000  Level Oakland Center
Sat 10:56:34 AM 35.8994 -120.6475 141° Southeast 422 486 33,000  Level Oakland Center
Sat 10:57:35 AM 35.8072 -120.5569 141° Southeast 424 488 33,000  Level Oakland Center
Sat 10:58:36 AM 35.7153 -120.4672 142° Southeast 423 487 33,000  Level Oakland Center
Sat 10:59:37 AM 35.6228 -120.3761 141° Southeast 422 486 33,000  Level Oakland Center
Sat 11:00:38 AM 35.5308 -120.2861 141° Southeast 418 481 33,000  Level Oakland Center
Sat 11:01:39 AM 35.4314 -120.1914 142° Southeast 424 488 33,000  Level Oakland Center
Sat 11:02:40 AM 35.3425 -120.1031 141° Southeast 422 486 33,000 -246 Level Oakland Center
Sat 11:03:41 AM 35.2503 -120.0150 142° Southeast 420 483 32,500 -1,033 Descending Oakland Center
Sat 11:04:42 AM 35.1589 -119.9272 142° Southeast 416 479 30,900 -1,967 Descending Oakland Center
Sat 11:05:43 AM 35.0706 -119.8375 140° Southeast 415 478 28,500 -2,262 Descending Oakland Center
Sat 11:06:44 AM 34.9967 -119.7336 131° Southeast 409 471 26,300 -2,115 Descending Oakland Center
Sat 11:07:45 AM 34.9225 -119.6353 133° Southeast 399 459 24,200 -2,016 Descending Oakland Center
Sat 11:08:46 AM 34.8533 -119.5414 132° Southeast 379 436 22,200 -1,967 Descending Oakland Center
Sat 11:09:47 AM 34.7836 -119.4489 133° Southeast 374 430 20,200 -1,918 Descending Oakland Center
Sat 11:10:48 AM 34.7194 -119.3611 132° Southeast 357 411 18,300 -2,066 Descending Oakland Center
Sat 11:11:49 AM 34.6436 -119.2611 133° Southeast 340 391 16,000 -1,929 Descending Oakland Center
Sat 11:13:08 AM 34.5717 -119.1681 133° Southeast 329 379 13,800 -1,872 Descending Los Angeles Center
Sat 11:14:10 AM 34.5014 -119.0714 131° Southeast 319 367 11,600 -1,403 Descending Los Angeles Center
Sat 11:15:12 AM 34.4444 -118.9975 133° Southeast 299 344 10,900 -1,073 Descending Los Angeles Center
Sat 11:16:13 AM 34.3931 -118.9219 129° Southeast 293 337 9,400 -1,512 Descending Los Angeles Center
Sat 11:17:15 AM 34.3469 -118.8431 125° Southeast 289 333 7,800 -1,452 Descending Los Angeles Center
Sat 11:18:17 AM 34.2994 -118.7728 129° Southeast 274 315 6,400 -1,065 Descending Los Angeles Center
Sat 11:19:19 AM 34.2561 -118.7008 126° Southeast 267 307 5,600 -677 Descending Los Angeles Center
Sat 11:20:21 AM 34.2339 -118.6311 111° Southeast 230 265 5,000 -947 Descending Los Angeles Center
Sat 11:21:13 AM 34.2167 -118.5500 104° East 226 260 3,800 -1,168 Descending Southern California TRACON
Sat 11:22:14 AM 34.2000 -118.4833 107° East 187 215 2,800 -942 Descending Southern California TRACON
Sat 11:23:14 AM 34.2000 -118.4333 90° East 146 168 1,900 -850 Descending Southern California TRACON
Sat 11:24:14 AM 34.2000 -118.4000 90° East 129 148 1,100 -800 Descending Southern California TRACON
Sat 11:26:00 AM 34.2000 -118.3500 95° East  Level FlightAware Approximate

Login

Don't have an account? Register now (free) for customized features, flight alerts, and more!